createdAt,value
2022-10-28T00:01:58.252Z,17.65
2022-10-28T00:04:28.438Z,15.90
2022-10-28T00:06:57.563Z,18.17
2022-10-28T00:09:29.549Z,17.33
2022-10-28T00:11:58.572Z,20.42
2022-10-28T00:14:27.453Z,15.00
2022-10-28T00:16:56.397Z,16.27
2022-10-28T00:19:27.267Z,19.48
2022-10-28T00:21:58.327Z,17.20
2022-10-28T00:24:30.029Z,16.08
2022-10-28T00:27:02.416Z,24.60
2022-10-28T00:29:32.168Z,14.80
2022-10-28T00:32:01.096Z,20.15
2022-10-28T00:34:30.459Z,15.45
2022-10-28T00:36:59.620Z,18.02
2022-10-28T00:40:00.795Z,23.17
2022-10-28T00:42:34.625Z,28.23
2022-10-28T00:45:14.472Z,23.38
2022-10-28T00:47:52.687Z,22.00
2022-10-28T00:50:29.834Z,16.08
2022-10-28T00:53:01.827Z,22.42
2022-10-28T00:55:31.778Z,16.20
2022-10-28T00:58:03.022Z,13.75
2022-10-28T01:00:32.637Z,15.00
2022-10-28T01:03:01.793Z,17.13
2022-10-28T01:05:31.518Z,17.23
2022-10-28T01:08:02.450Z,16.48
2022-10-28T01:10:39.093Z,22.15
2022-10-28T01:13:13.385Z,16.95
2022-10-28T01:15:45.071Z,20.45
2022-10-28T01:18:19.363Z,16.17
2022-10-28T01:21:02.954Z,17.55
2022-10-28T01:23:36.270Z,14.93
2022-10-28T01:26:17.418Z,16.17
2022-10-28T01:29:19.690Z,17.77
2022-10-28T01:31:52.866Z,20.02
2022-10-28T01:34:25.461Z,20.13
2022-10-28T01:36:58.579Z,19.42
2022-10-28T01:39:31.912Z,17.92
2022-10-28T01:42:03.423Z,16.38
2022-10-28T01:44:34.290Z,19.17
2022-10-28T01:47:10.436Z,20.80
2022-10-28T01:49:42.738Z,19.50
2022-10-28T01:52:13.743Z,26.52
2022-10-28T01:54:44.701Z,22.85
2022-10-28T01:57:14.651Z,22.17
2022-10-28T01:59:43.624Z,24.58
2022-10-28T02:02:13.937Z,20.60
2022-10-28T02:04:42.875Z,23.75
2022-10-28T02:07:11.825Z,16.80
2022-10-28T02:09:52.022Z,18.45
2022-10-28T02:12:23.809Z,21.58
2022-10-28T02:15:10.444Z,20.52
2022-10-28T02:17:46.281Z,24.50
2022-10-28T02:20:19.913Z,15.55
2022-10-28T02:22:52.739Z,23.30
2022-10-28T02:25:23.026Z,22.40
2022-10-28T02:27:58.489Z,25.92
2022-10-28T02:30:31.459Z,23.90
2022-10-28T02:33:02.615Z,23.10
2022-10-28T02:35:33.125Z,22.93
2022-10-28T02:38:04.557Z,19.77
2022-10-28T02:40:34.681Z,26.33
2022-10-28T02:43:05.084Z,26.23
2022-10-28T02:45:36.536Z,23.95
2022-10-28T02:48:09.158Z,23.00
2022-10-28T02:50:39.466Z,24.42
2022-10-28T02:53:12.579Z,27.02
2022-10-28T02:55:43.675Z,23.50
2022-10-28T02:58:13.090Z,24.05
2022-10-28T03:00:45.609Z,23.85
2022-10-28T03:03:16.017Z,28.25
2022-10-28T03:05:45.175Z,28.05
2022-10-28T03:08:14.177Z,26.15
2022-10-28T03:10:43.151Z,23.58
2022-10-28T03:16:01.010Z,22.42
2022-10-28T03:18:31.326Z,27.48
2022-10-28T03:21:00.471Z,25.33
2022-10-28T03:23:29.604Z,27.77
2022-10-28T03:25:58.792Z,27.02
2022-10-28T03:28:27.858Z,22.45
2022-10-28T03:30:56.844Z,26.90
2022-10-28T03:33:25.701Z,26.95
2022-10-28T03:35:55.909Z,29.77
2022-10-28T03:38:24.795Z,23.27
2022-10-28T03:40:53.710Z,24.95
2022-10-28T03:43:22.586Z,22.67
2022-10-28T03:45:51.479Z,28.38
2022-10-28T03:48:20.386Z,25.85
2022-10-28T03:50:49.410Z,25.90
2022-10-28T03:53:19.659Z,23.25
2022-10-28T03:55:53.200Z,24.98
2022-10-28T03:58:22.335Z,20.33
2022-10-28T04:00:51.585Z,29.90
2022-10-28T04:03:21.133Z,23.25
2022-10-28T04:05:50.599Z,25.27
2022-10-28T04:08:21.523Z,24.27
2022-10-28T04:10:50.445Z,22.58
2022-10-28T04:13:19.654Z,26.08
2022-10-28T04:15:51.495Z,23.88
2022-10-28T04:20:52.964Z,22.67
2022-10-28T04:23:25.042Z,26.05
2022-10-28T04:28:25.529Z,19.48
2022-10-28T04:30:54.775Z,21.90
2022-10-28T04:33:24.025Z,22.58
2022-10-28T04:35:53.594Z,21.70
2022-10-28T04:40:54.910Z,20.88
2022-10-28T04:43:24.349Z,27.33
2022-10-28T04:45:54.544Z,27.77
2022-10-28T04:48:24.603Z,20.95
2022-10-28T04:50:54.436Z,18.75
2022-10-28T04:53:25.030Z,25.67
2022-10-28T04:55:58.259Z,23.17
2022-10-28T04:58:27.654Z,20.27
2022-10-28T05:00:57.666Z,27.15
2022-10-28T05:03:27.108Z,17.50
2022-10-28T05:05:57.088Z,26.40
2022-10-28T05:08:29.249Z,15.73
2022-10-28T05:13:27.573Z,22.95
2022-10-28T05:15:57.057Z,15.73
2022-10-28T05:18:26.287Z,19.60
2022-10-28T05:20:56.052Z,17.17
2022-10-28T05:23:28.529Z,19.98
2022-10-28T05:26:02.589Z,17.55
2022-10-28T05:28:31.997Z,21.10
2022-10-28T05:31:02.083Z,15.13
2022-10-28T05:33:35.117Z,16.48
2022-10-28T05:36:04.651Z,13.80
2022-10-28T05:38:34.029Z,19.75
2022-10-28T05:41:06.022Z,14.30
2022-10-28T05:43:35.528Z,21.55
2022-10-28T05:46:07.509Z,13.05
2022-10-28T05:48:36.759Z,17.95
2022-10-28T05:51:09.215Z,17.55
2022-10-28T05:53:38.445Z,13.65
2022-10-28T05:56:10.002Z,16.83
2022-10-28T05:58:39.446Z,14.25
2022-10-28T06:01:09.227Z,10.55
2022-10-28T06:03:39.552Z,13.00
2022-10-28T06:06:10.722Z,11.40
2022-10-28T06:08:40.207Z,11.43
2022-10-28T06:11:09.703Z,12.05
2022-10-28T06:13:43.439Z,18.27
2022-10-28T06:16:15.412Z,16.45
2022-10-28T06:18:45.294Z,14.27
2022-10-28T06:21:18.359Z,17.48
2022-10-28T06:23:53.727Z,12.90
2022-10-28T06:26:24.467Z,16.98
2022-10-28T06:28:53.642Z,16.90
2022-10-28T06:31:23.165Z,16.23
2022-10-28T06:33:52.704Z,18.65
2022-10-28T06:36:23.382Z,16.30
2022-10-28T06:38:56.490Z,12.30
2022-10-28T06:41:30.984Z,13.70
2022-10-28T06:44:00.717Z,17.48
2022-10-28T06:46:30.077Z,18.58
2022-10-28T06:49:03.518Z,22.80
2022-10-28T06:51:41.351Z,13.70
2022-10-28T06:54:18.328Z,14.40
2022-10-28T06:56:50.654Z,13.43
2022-10-28T06:59:29.802Z,15.73
2022-10-28T07:01:59.991Z,13.07
2022-10-28T07:04:29.999Z,16.00
2022-10-28T07:07:00.137Z,20.50
2022-10-28T07:09:34.126Z,22.00
2022-10-28T07:12:06.766Z,14.27
2022-10-28T07:14:44.308Z,16.63
2022-10-28T07:17:14.074Z,21.17
2022-10-28T07:19:46.434Z,17.40
2022-10-28T07:22:15.869Z,16.60
2022-10-28T07:24:45.896Z,11.63
2022-10-28T07:27:19.150Z,11.23
2022-10-28T07:29:48.573Z,13.38
2022-10-28T07:32:17.938Z,11.95
2022-10-28T07:34:47.168Z,18.05
2022-10-28T07:37:25.325Z,17.05
2022-10-28T07:39:54.790Z,14.07
2022-10-28T07:42:28.966Z,16.77
2022-10-28T07:44:58.197Z,16.58
2022-10-28T07:47:27.831Z,14.93
2022-10-28T07:49:57.446Z,14.07
2022-10-28T07:52:28.925Z,17.92
2022-10-28T07:54:57.983Z,21.98
2022-10-28T07:57:30.962Z,19.27
2022-10-28T08:00:00.282Z,16.23
2022-10-28T08:02:31.368Z,16.65
2022-10-28T08:05:02.233Z,21.92
2022-10-28T08:07:38.774Z,16.67
2022-10-28T08:10:09.089Z,16.23
2022-10-28T08:12:42.502Z,15.75
2022-10-28T08:15:12.968Z,11.60
2022-10-28T08:17:42.233Z,19.75
2022-10-28T08:20:11.796Z,20.40
2022-10-28T08:22:41.253Z,19.77
2022-10-28T08:25:11.103Z,21.50
2022-10-28T08:27:42.238Z,27.00
2022-10-28T08:30:14.486Z,17.80
2022-10-28T08:32:46.750Z,19.85
2022-10-28T08:35:16.090Z,19.92
2022-10-28T08:37:46.169Z,17.02
2022-10-28T08:40:15.513Z,17.77
2022-10-28T08:42:51.773Z,20.20
2022-10-28T08:45:23.760Z,21.38
2022-10-28T08:48:02.941Z,20.25
2022-10-28T08:50:33.858Z,22.90
2022-10-28T08:53:06.721Z,15.23
2022-10-28T08:55:38.321Z,15.13
2022-10-28T08:58:11.252Z,15.25
2022-10-28T09:00:43.512Z,14.40
2022-10-28T09:03:20.636Z,11.63
2022-10-28T09:05:52.248Z,14.27
2022-10-28T09:08:25.633Z,13.48
2022-10-28T09:11:03.684Z,17.85
2022-10-28T09:13:40.859Z,10.40
2022-10-28T09:16:17.282Z,16.25
2022-10-28T09:18:52.567Z,11.85
2022-10-28T09:21:35.430Z,14.45
2022-10-28T09:24:09.796Z,13.38
2022-10-28T09:26:44.687Z,16.73
2022-10-28T09:29:30.298Z,13.32
2022-10-28T09:32:06.993Z,16.02
2022-10-28T09:34:38.869Z,8.77
2022-10-28T09:37:12.606Z,13.80
2022-10-28T09:39:44.028Z,12.80
2022-10-28T09:42:18.079Z,8.52
2022-10-28T09:44:50.238Z,9.25
2022-10-28T09:49:50.198Z,10.80
2022-10-28T09:52:22.376Z,8.38
2022-10-28T09:57:21.082Z,7.25
2022-10-28T09:59:50.951Z,5.18
2022-10-28T10:02:28.223Z,5.53
2022-10-28T10:04:59.870Z,4.28
2022-10-28T10:07:33.627Z,4.50
2022-10-28T10:10:09.732Z,4.57
2022-10-28T10:12:39.461Z,6.57
2022-10-28T10:15:10.110Z,2.35
2022-10-28T10:17:41.216Z,3.15
2022-10-28T10:20:12.909Z,4.73
2022-10-28T10:22:42.570Z,5.15
2022-10-28T10:25:26.550Z,2.50
2022-10-28T10:27:57.751Z,6.85
2022-10-28T10:30:28.614Z,3.97
2022-10-28T10:32:58.338Z,7.68
2022-10-28T10:35:30.572Z,3.88
2022-10-28T10:40:31.681Z,5.60
2022-10-28T10:43:24.758Z,5.30
2022-10-28T10:45:55.454Z,6.60
2022-10-28T10:48:25.024Z,3.22
2022-10-28T10:50:58.098Z,7.10
2022-10-28T10:53:28.198Z,6.78
2022-10-28T10:56:00.640Z,4.75
2022-10-28T10:58:30.824Z,3.55
2022-10-28T11:01:01.702Z,5.25
2022-10-28T11:03:34.857Z,4.03
2022-10-28T11:06:23.229Z,3.13
2022-10-28T11:08:56.811Z,4.32
2022-10-28T11:11:33.577Z,8.18
2022-10-28T11:14:08.501Z,6.13
2022-10-28T11:16:49.647Z,4.43
2022-10-28T11:19:22.461Z,6.47
2022-10-28T11:22:06.469Z,3.58
2022-10-28T11:24:43.400Z,3.58
2022-10-28T11:27:17.403Z,9.00
2022-10-28T11:29:48.824Z,4.30
2022-10-28T11:32:30.587Z,6.53
2022-10-28T11:35:14.770Z,3.35
2022-10-28T11:37:51.364Z,5.45
2022-10-28T11:40:30.875Z,8.63
2022-10-28T11:43:07.120Z,6.53
2022-10-28T11:45:39.926Z,3.45
2022-10-28T11:48:17.288Z,4.25
2022-10-28T11:50:57.561Z,3.30
2022-10-28T11:53:50.988Z,9.75
2022-10-28T11:56:27.584Z,4.80
2022-10-28T11:59:01.872Z,5.97
2022-10-28T12:01:40.213Z,5.80
2022-10-28T12:04:31.444Z,4.90
2022-10-28T12:07:11.331Z,5.35
2022-10-28T12:09:45.270Z,7.68
2022-10-28T12:12:21.514Z,7.65
2022-10-28T12:14:56.851Z,5.97
2022-10-28T12:17:29.994Z,5.70
2022-10-28T12:20:01.184Z,7.70
2022-10-28T12:22:32.338Z,7.65
2022-10-28T12:25:03.790Z,4.68
2022-10-28T12:27:39.509Z,6.45
2022-10-28T12:30:13.618Z,6.85
2022-10-28T12:32:43.288Z,5.97
2022-10-28T12:35:16.247Z,4.60
2022-10-28T12:37:48.831Z,3.70
2022-10-28T12:40:21.248Z,6.65
2022-10-28T12:42:55.668Z,8.68
2022-10-28T12:45:25.965Z,14.52
2022-10-28T12:48:00.162Z,4.20
2022-10-28T12:50:33.953Z,9.27
2022-10-28T12:53:08.772Z,7.43
2022-10-28T12:55:39.813Z,5.97
2022-10-28T12:58:15.558Z,4.88
2022-10-28T13:00:46.313Z,6.85
2022-10-28T13:03:16.792Z,9.15
2022-10-28T13:05:48.279Z,6.30
2022-10-28T13:08:34.868Z,4.45
2022-10-28T13:11:12.542Z,6.45
2022-10-28T13:13:47.441Z,4.80
2022-10-28T13:16:25.073Z,4.25
2022-10-28T13:19:13.215Z,6.13
2022-10-28T13:21:55.326Z,8.15
2022-10-28T13:24:27.971Z,8.60
2022-10-28T13:26:58.325Z,4.47
2022-10-28T13:29:34.706Z,2.03
2022-10-28T13:32:04.192Z,7.97
2022-10-28T13:34:34.971Z,7.53
2022-10-28T13:37:05.760Z,7.95
2022-10-28T13:39:42.562Z,4.40
2022-10-28T13:42:48.696Z,9.73
2022-10-28T13:45:36.675Z,8.38
2022-10-28T13:48:25.336Z,8.27
2022-10-28T13:51:15.893Z,4.65
2022-10-28T13:53:56.717Z,4.75
2022-10-28T13:56:39.448Z,5.60
2022-10-28T13:59:18.604Z,8.57
2022-10-28T14:04:59.301Z,6.47
2022-10-28T14:07:31.634Z,5.90
2022-10-28T14:10:19.205Z,3.58
2022-10-28T14:12:52.429Z,5.72
2022-10-28T14:15:25.434Z,5.35
2022-10-28T14:18:04.932Z,4.88
2022-10-28T14:20:43.871Z,5.10
2022-10-28T14:23:32.398Z,4.72
2022-10-28T14:26:06.330Z,4.82
2022-10-28T14:28:53.503Z,7.72
2022-10-28T14:31:44.822Z,4.53
2022-10-28T14:34:42.509Z,6.85
2022-10-28T14:37:37.135Z,6.57
2022-10-28T14:40:27.343Z,6.03
2022-10-28T14:43:13.767Z,3.63
2022-10-28T14:45:57.634Z,5.05
2022-10-28T14:48:55.307Z,4.05
2022-10-28T14:51:27.172Z,7.93
2022-10-28T14:53:58.662Z,5.07
2022-10-28T14:56:29.740Z,6.30
2022-10-28T14:59:02.946Z,8.20
2022-10-28T15:01:38.665Z,9.57
2022-10-28T15:04:13.814Z,5.95
2022-10-28T15:06:48.036Z,10.40
2022-10-28T15:09:19.221Z,5.63
2022-10-28T15:11:56.116Z,9.05
2022-10-28T15:14:28.503Z,11.48
2022-10-28T15:17:00.925Z,7.93
2022-10-28T15:19:31.476Z,6.85
2022-10-28T15:22:04.769Z,5.65
2022-10-28T15:24:47.116Z,6.50
2022-10-28T15:27:20.592Z,6.72
2022-10-28T15:29:57.903Z,8.52
2022-10-28T15:32:30.190Z,4.82
2022-10-28T15:35:02.502Z,10.27
2022-10-28T15:37:46.543Z,7.35
2022-10-28T15:40:24.516Z,9.55
2022-10-28T15:42:56.159Z,12.48
2022-10-28T15:45:42.687Z,7.03
2022-10-28T15:48:26.635Z,9.55
2022-10-28T15:51:16.086Z,7.50
2022-10-28T15:53:48.464Z,8.18
2022-10-28T15:56:23.882Z,8.95
2022-10-28T15:59:04.471Z,7.60
2022-10-28T16:01:39.854Z,8.20
2022-10-28T16:04:30.007Z,8.60
2022-10-28T16:07:08.721Z,9.13
2022-10-28T16:09:43.658Z,8.32
2022-10-28T16:12:18.681Z,10.48
2022-10-28T16:14:51.608Z,9.45
2022-10-28T16:17:24.025Z,14.02
2022-10-28T16:19:54.564Z,8.48
2022-10-28T16:22:29.354Z,12.52
2022-10-28T16:24:59.155Z,12.07
2022-10-28T16:27:29.954Z,7.55
2022-10-28T16:30:05.695Z,7.35
2022-10-28T16:32:41.481Z,11.38
2022-10-28T16:35:15.479Z,8.80
2022-10-28T16:37:53.741Z,13.48
2022-10-28T16:40:49.918Z,8.52
2022-10-28T16:43:19.724Z,8.18
2022-10-28T16:45:49.648Z,8.65
2022-10-28T16:48:19.451Z,9.30
2022-10-28T16:50:51.196Z,6.20
2022-10-28T16:53:24.815Z,13.07
2022-10-28T16:55:58.894Z,12.82
2022-10-28T16:58:28.928Z,8.15
2022-10-28T17:00:58.245Z,8.95
2022-10-28T17:03:27.646Z,6.85
2022-10-28T17:05:56.851Z,8.02
2022-10-28T17:09:00.623Z,15.63
2022-10-28T17:11:22.215Z,7.15
2022-10-28T17:13:52.036Z,10.45
2022-10-28T17:16:21.725Z,14.07
2022-10-28T17:18:54.282Z,11.52
2022-10-28T17:21:23.941Z,15.85
2022-10-28T17:23:54.784Z,7.43
2022-10-28T17:26:23.957Z,11.68
2022-10-28T17:28:53.392Z,5.45
2022-10-28T17:31:25.123Z,6.05
2022-10-28T17:33:58.762Z,8.13
2022-10-28T17:36:29.550Z,5.20
2022-10-28T17:39:00.397Z,7.22
2022-10-28T17:41:29.819Z,6.97
2022-10-28T17:43:59.196Z,10.45
2022-10-28T17:46:28.960Z,6.82
2022-10-28T17:48:58.216Z,6.53
2022-10-28T17:51:28.888Z,5.88
2022-10-28T17:53:58.620Z,6.75
2022-10-28T17:56:29.516Z,7.40
2022-10-28T17:58:59.827Z,3.72
2022-10-28T18:01:30.267Z,4.25
2022-10-28T18:04:01.060Z,5.07
2022-10-28T18:06:31.512Z,4.25
2022-10-28T18:09:00.912Z,4.20
2022-10-28T18:11:33.328Z,4.25
2022-10-28T18:14:06.593Z,7.13
2022-10-28T18:16:37.876Z,4.80
2022-10-28T18:19:09.388Z,4.20
2022-10-28T18:21:39.641Z,2.60
2022-10-28T18:24:09.631Z,5.82
2022-10-28T18:26:41.890Z,5.32
2022-10-28T18:29:13.524Z,5.28
2022-10-28T18:31:44.300Z,6.28
2022-10-28T18:34:14.073Z,5.38
2022-10-28T18:36:43.253Z,6.43
2022-10-28T18:39:12.885Z,4.05
2022-10-28T18:41:43.909Z,2.70
2022-10-28T18:44:14.487Z,4.50
2022-10-28T18:46:45.407Z,4.03
2022-10-28T18:49:15.309Z,6.80
2022-10-28T18:51:45.765Z,4.88
2022-10-28T18:54:27.960Z,6.80
2022-10-28T18:57:00.673Z,8.02
2022-10-28T18:59:31.597Z,9.40
2022-10-28T19:02:04.597Z,7.47
2022-10-28T19:04:34.790Z,5.82
2022-10-28T19:07:06.067Z,8.15
2022-10-28T19:09:40.098Z,12.35
2022-10-28T19:12:15.874Z,17.42
2022-10-28T19:14:50.830Z,12.98
2022-10-28T19:17:26.379Z,14.98
2022-10-28T19:19:58.796Z,9.68
2022-10-28T19:22:38.166Z,17.13
2022-10-28T19:25:28.245Z,13.45
2022-10-28T19:28:00.437Z,12.20
2022-10-28T19:30:41.589Z,10.90
2022-10-28T19:33:12.347Z,11.95
2022-10-28T19:35:42.084Z,17.42
2022-10-28T19:38:24.199Z,11.80
2022-10-28T19:40:58.595Z,13.00
2022-10-28T19:43:36.080Z,8.82
2022-10-28T19:46:09.720Z,14.85
2022-10-28T19:48:42.528Z,11.75
2022-10-28T19:51:30.100Z,12.13
2022-10-28T19:54:00.772Z,8.90
2022-10-28T19:56:33.850Z,8.07
2022-10-28T19:59:08.081Z,10.75
2022-10-28T20:01:39.625Z,11.30
2022-10-28T20:04:09.911Z,13.40
2022-10-28T20:06:52.983Z,7.13
2022-10-28T20:09:28.636Z,12.13
2022-10-28T20:12:01.817Z,12.35
2022-10-28T20:14:34.528Z,12.48
2022-10-28T20:17:07.762Z,12.95
2022-10-28T20:19:38.075Z,8.60
2022-10-28T20:22:08.118Z,11.25
2022-10-28T20:24:41.826Z,7.55
2022-10-28T20:27:18.072Z,11.80
2022-10-28T20:29:50.490Z,10.93
2022-10-28T20:32:25.145Z,12.27
2022-10-28T20:34:55.589Z,8.60
2022-10-28T20:37:28.270Z,9.07
2022-10-28T20:40:01.635Z,12.20
2022-10-28T20:42:39.153Z,13.65
2022-10-28T20:45:11.923Z,16.33
2022-10-28T20:47:43.938Z,15.02
2022-10-28T20:50:14.834Z,15.40
2022-10-28T20:52:49.792Z,18.85
2022-10-28T20:55:26.973Z,17.27
2022-10-28T20:57:56.987Z,12.27
2022-10-28T21:00:28.623Z,14.98
2022-10-28T21:03:00.804Z,15.43
2022-10-28T21:05:33.196Z,14.77
2022-10-28T21:08:02.881Z,17.95
2022-10-28T21:10:35.048Z,11.13
2022-10-28T21:13:10.084Z,12.07
2022-10-28T21:15:42.796Z,16.42
2022-10-28T21:18:16.211Z,11.82
2022-10-28T21:20:45.652Z,9.85
2022-10-28T21:23:16.097Z,15.57
2022-10-28T21:25:46.154Z,15.35
2022-10-28T21:28:16.969Z,15.40
2022-10-28T21:30:51.714Z,15.02
2022-10-28T21:33:24.908Z,10.32
2022-10-28T21:35:57.116Z,12.07
2022-10-28T21:38:31.012Z,16.10
2022-10-28T21:41:03.308Z,11.65
2022-10-28T21:44:03.135Z,18.98
2022-10-28T21:46:45.007Z,13.35
2022-10-28T21:49:16.242Z,15.43
2022-10-28T21:51:46.441Z,14.65
2022-10-28T21:54:18.657Z,10.73
2022-10-28T21:56:48.239Z,8.07
2022-10-28T21:59:17.852Z,10.23
2022-10-28T22:01:51.150Z,9.55
2022-10-28T22:04:20.453Z,8.93
2022-10-28T22:06:52.645Z,12.00
2022-10-28T22:09:22.113Z,14.48
2022-10-28T22:11:52.926Z,16.33
2022-10-28T22:14:22.867Z,12.05
2022-10-28T22:16:53.688Z,9.52
2022-10-28T22:19:23.493Z,13.43
2022-10-28T22:21:52.927Z,17.02
2022-10-28T22:24:22.497Z,16.48
2022-10-28T22:26:53.353Z,8.70
2022-10-28T22:29:23.163Z,9.13
2022-10-28T22:32:01.097Z,13.75
2022-10-28T22:34:34.066Z,19.05
2022-10-28T22:37:04.874Z,15.48
2022-10-28T22:39:35.499Z,9.68
2022-10-28T22:42:08.219Z,14.88
2022-10-28T22:44:42.123Z,16.67
2022-10-28T22:47:22.350Z,23.80
2022-10-28T22:49:53.197Z,13.95
2022-10-28T22:52:23.153Z,15.23
2022-10-28T22:54:56.918Z,12.23
2022-10-28T22:57:26.992Z,17.50
2022-10-28T22:59:56.366Z,10.50
2022-10-28T23:02:27.511Z,7.97
2022-10-28T23:05:00.847Z,6.25
2022-10-28T23:07:30.416Z,12.23
2022-10-28T23:10:00.543Z,12.77
2022-10-28T23:12:32.752Z,9.80
2022-10-28T23:15:04.043Z,9.75
2022-10-28T23:17:34.743Z,8.43
2022-10-28T23:20:03.790Z,8.60
2022-10-28T23:22:39.823Z,10.73
2022-10-28T23:25:10.821Z,9.48
2022-10-28T23:27:40.967Z,8.25
2022-10-28T23:30:17.582Z,7.97
2022-10-28T23:32:48.691Z,10.63
2022-10-28T23:35:19.090Z,11.63
2022-10-28T23:37:48.760Z,12.30
2022-10-28T23:40:22.034Z,11.35
2022-10-28T23:42:52.903Z,13.98
2022-10-28T23:45:22.634Z,10.52
2022-10-28T23:47:54.045Z,13.50
2022-10-28T23:50:23.156Z,10.48
2022-10-28T23:52:56.162Z,10.48
2022-10-28T23:55:29.312Z,9.48
2022-10-28T23:57:59.567Z,8.13
